Aérodrome :
LOGIN :

S'inscrire | Disclaimer

   EN    FR    IT 

 










Légende :    VFR   VFR Marginal   IFR   IFR Intensif   IFR Très Intensif
Visi : 
Plafond : 
>= 8 km
>= 3000ft
5 à 8 km
1000 à 3000 ft
1500m à 5 km
500 à 1000 ft
800 à 1500m
200 à 500 ft
< 800m
< 200 ft
Symboles :   Orages  Brouillard  Fortes neiges  Fortes précipitations  Vent > 20 kt
SIGMETs :   Divers  Orages  Givrage  Turbulence  Onde Orograph.  Cendres Volcan.






- Altitude de l'aérodrome : 464 ft
- Code IATA : EVX


LFOE - Evreux

DERNIER METAR :
  • 140500Z AUTO 20003KT 8000 FEW034 BKN072 17/16 Q1014 TEMPO 4000 -SHRA BKN004 BKN030TCU

METARs EXPIRÉS :
  • 140430Z AUTO 20004KT 9999 SCT028 17/16 Q1013 TEMPO 4000 -SHRA BKN004 BKN030TCU
  • 140400Z AUTO 20004KT 9999 FEW028 17/16 Q1013 TEMPO 4000 -SHRA BKN004 BKN030TCU
  • 140330Z AUTO 20006KT 9999 FEW014 BKN020 17/16 Q1013 TEMPO 4000 -SHRA BKN004 BKN030TCU
  • 140300Z AUTO 22005KT 9999 FEW012 17/16 Q1013 TEMPO 4000 -SHRA BKN004 BKN030TCU
  • 140230Z AUTO 22006KT CAVOK 18/16 Q1013 TEMPO 4000 -SHRA BKN004 BKN030TCU

TAF AMD TAF LFOE
Valide du 14 à 04h jusqu'au 15 à 03h UTC


140420Z 1404/1503 20005KT 9999 SCT020
BECMG 1404/1406 BKN008
TEMPO 1404/1408 4000 -SHRA BKN004 BKN030TCU
BECMG 1409/1411 BKN015
TEMPO 1412/1419 27010G20KT 4000 SHRA BKN040TCU
BECMG 1422/1424 BKN006



MET'MAP, la Météo Aéronautique d'un coup d'oeil ! - Copyright ORBIFLY Décembre 2007 - Disclaimer

ORBIFLY MET'MAP TEAM :

Programmation & Développement : Alexandra Zaïnal
Sur une idée originale de : Baudouin d'Aumeries
Assistance à la programmation : Marc-Olivier Méhu
Soutien technique & logistique : Manuel Goepfert

Contact : metmap@orbifly.com




SOURCES & CREDITS :

   NOAA